Sunriver, Oregon
Current Conditions -  °F | °C
As of 8:55 AM on Friday 28 Nov 2014 (Local Time) from KBDN Reporting Station
Scattered Clouds Scattered Clouds  
Wind Chill: 37°   Ceiling: Unl
Heat Index: 45°   Visibility: 10mi
Dew Point: 36°   Wind: 20mph
Humidity: 71%   Direction: 210°SSW
Pressure: 29.75"   Gusts: 31mph
Location:  43.844°N, 121.489°W
Report Text: KBDN 281655Z AUTO 21017G27KT 10SM SCT085 07/02 A2975 RMK AO2
Loading
Personal Weather Stations






























Interactive Weather Map New forecast layout! Learn more

10-Day Weather Forecast

Advertisements
Track Severe Weather on mobile